Terminal Aerodrome Forecast
Issued by NWS

Home | Current Version | Previous Version | Text Only | Print | Product List | Glossary Off
Versions: 1 2 3 4 5 6 7 8 9 10 11 12 13 14 15 16 17 18 19 20

000
FTUS43 KICT 252340
TAFSLN
TAF
KSLN 252340Z 2600/2624 VRB04KT P6SM SCT020 BKN035
     FM260400 12007KT P6SM BKN025
     FM260700 13012KT 6SM BR OVC012
     FM261000 15012KT 5SM BR BKN008
     FM261600 17012KT P6SM SCT012 BKN028
     FM262000 17016G26KT P6SM SCT020 BKN035=

USA.gov is the U.S. government's official web portal to all federal, state and local government web resources and services.